Flight Track Log - Related Links

Times and Time Zones

All times are in EDT time to prevent confusion due to time zone crossing. See the RPA4901 flight status page for this flight to view local times or setup timezone preferences in your user account.

Time Position Orientation Groundspeed Altitude Reporting Facility
EDT Latitude Longitude Course Direction KTS MPH feet Rate Location/Type
Tue 08:52:26 PM 39.9203 -104.6867 271° West 176 203 6,800  Level Denver Center
Tue 08:53:28 PM 39.9211 -104.7650 271° West 241 277 8,400 1,902 Climbing Denver Center
Tue 08:54:29 PM 39.8836 -104.8411 237° Southwest 252 290 10,700 2,293 Climbing Denver Center
Tue 08:55:31 PM 39.8408 -104.9000 227° Southwest 230 265 13,100 1,951 Climbing Denver Center
Tue 08:56:32 PM 39.7750 -104.8961 177° South 224 258 14,700 1,377 Climbing Denver Center
Tue 08:57:33 PM 39.7253 -104.8906 175° South 229 264 15,900 1,317 Climbing Denver Center
Tue 08:58:35 PM 39.6481 -104.8994 185° South 226 260 17,400 1,415 Climbing Denver Center
Tue 08:59:36 PM 39.5814 -104.9233 195° South 232 267 18,800 1,230 Climbing Denver Center
Tue 09:00:37 PM 39.5167 -104.9442 194° South 239 275 19,900 976 Climbing Denver Center
Tue 09:01:39 PM 39.4514 -104.9656 194° South 244 281 20,800 976 Climbing Denver Center
Tue 09:02:40 PM 39.3789 -104.9881 193° South 249 287 21,900 878 Climbing Denver Center
Tue 09:03:42 PM 39.3106 -105.0106 194° South 255 293 22,600 732 Climbing Denver Center
Tue 09:04:43 PM 39.2411 -105.0325 194° South 259 298 23,400 689 Climbing Denver Center
Tue 09:05:44 PM 39.1700 -105.0525 192° South 261 300 24,000 293 Climbing Denver Center
Tue 09:06:46 PM 39.0950 -105.0867 199° South 268 308 24,000  Level Denver Center
Tue 09:07:47 PM 39.0217 -105.1331 206° Southwest 285 328 24,000 49 Level Denver Center
Tue 09:08:49 PM 38.9447 -105.1772 204° Southwest 297 342 24,100 488 Climbing Denver Center
Tue 09:09:50 PM 38.8683 -105.2219 205° Southwest 287 330 25,000 443 Climbing Denver Center
Tue 09:10:51 PM 38.8000 -105.2614 204° Southwest 282 325 25,000  Level Denver Center
Tue 09:11:53 PM 38.7150 -105.3122 205° Southwest 296 341 25,000  Level Denver Center
Tue 09:13:06 PM 38.6408 -105.3553 204° Southwest 305 351 25,000  Level Denver Center
Tue 09:14:08 PM 38.5400 -105.4097 203° Southwest 309 356 25,000  Level Denver Center
Tue 09:15:09 PM 38.4572 -105.4369 194° South 320 368 25,000  Level Denver Center
Tue 09:16:11 PM 38.3594 -105.4700 195° South 325 374 25,000  Level Denver Center
Tue 09:17:12 PM 38.2767 -105.4992 195° South 323 372 25,000  Level Denver Center
Tue 09:18:14 PM 38.2017 -105.5256 195° South 324 373 25,000  Level Denver Center
Tue 09:19:16 PM 38.0925 -105.5622 195° South 333 383 25,000  Level Denver Center
Tue 09:20:17 PM 38.0056 -105.5922 195° South 337 388 25,000  Level Denver Center
Tue 09:21:31 PM 37.9083 -105.6250 195° South 326 375 25,000  Level Denver Center
Tue 09:22:33 PM 37.8106 -105.6589 195° South 328 377 25,000  Level Denver Center
Tue 09:23:34 PM 37.7081 -105.6939 195° South 338 389 25,000  Level Denver Center
Tue 09:24:36 PM 37.6206 -105.7239 195° South 341 392 25,000  Level Denver Center
Tue 09:25:37 PM 37.5203 -105.7572 195° South 342 394 25,000  Level Denver Center
Tue 09:26:39 PM 37.4342 -105.7872 195° South 338 389 25,000  Level Denver Center
Tue 09:27:40 PM 37.3458 -105.8153 194° South 340 391 25,000  Level Denver Center
Tue 09:28:42 PM 37.2503 -105.8600 200° South 334 384 25,000  Level Denver Center
Tue 09:29:44 PM 37.1508 -105.9050 200° South 337 388 25,000  Level Denver Center
Tue 09:30:46 PM 37.0656 -105.9419 199° South 337 388 25,000  Level Denver Center
Tue 09:31:47 PM 36.9764 -105.9803 199° South 343 395 25,000  Level Denver Center
Tue 09:33:14 PM 36.8497 -106.0361 199° South 337 388 25,000  Level Denver Center
Tue 09:34:15 PM 36.7514 -106.0797 200° South 336 387 25,000  Level Denver Center
Tue 09:35:17 PM 36.6672 -106.1172 200° South 332 382 25,000  Level Denver Center
Tue 09:35:54 PM 36.6128 -106.1422 200° South 343 395 25,000  Level Albuquerque Center
Tue 09:36:55 PM 36.5169 -106.1856 200° South 331 381 25,000  Level Albuquerque Center
Tue 09:37:56 PM 36.4336 -106.2211 199° South 329 379 25,000  Level Albuquerque Center
Tue 09:38:58 PM 36.3506 -106.2569 199° South 329 379 25,000  Level Albuquerque Center
Tue 09:39:59 PM 36.2544 -106.2992 200° South 328 377 25,000  Level Albuquerque Center
Tue 09:41:00 PM 36.1706 -106.3358 199° South 329 379 25,000  Level Albuquerque Center
Tue 09:42:02 PM 36.0772 -106.3772 200° South 330 380 25,000 -49 Level Albuquerque Center
Tue 09:43:03 PM 35.9900 -106.4147 199° South 331 381 24,900 -885 Descending Albuquerque Center
Tue 09:44:04 PM 35.9033 -106.4511 199° South 337 388 23,200 -1,854 Descending Albuquerque Center
Tue 09:45:06 PM 35.8014 -106.4956 199° South 345 397 21,100 -1,854 Descending Albuquerque Center
Tue 09:46:07 PM 35.7169 -106.5319 199° South 338 389 19,400 -1,835 Descending Albuquerque Center
Tue 09:46:31 PM 35.6758 -106.5478 197° South 332 382 18,500 -2,111 Descending Albuquerque Center
Tue 09:47:01 PM 35.6344 -106.5664 200° South 334 384 17,500 -1,794 Descending Albuquerque Center
Tue 09:48:08 PM 35.5328 -106.6083 199° South 338 389 15,600 -1,686 Descending Albuquerque Center
Tue 09:49:02 PM 35.4517 -106.6453 200° South 337 388 14,100 -1,513 Descending Albuquerque Center
Tue 09:50:03 PM 35.3703 -106.6792 199° South 303 349 12,700 -1,426 Descending Albuquerque Center
Tue 09:51:04 PM 35.2944 -106.7092 198° South 285 328 11,200 -1,182 Descending Albuquerque Center
Tue 09:52:15 PM 35.2072 -106.7475 200° South 289 333 10,100 -567 Descending Albuquerque Center
Tue 09:53:11 PM 35.1394 -106.7750 198° South 255 293 10,000 -55 Descending Albuquerque Center
Tue 09:54:05 PM 35.0967 -106.7369 144° Southeast 254 292 10,000 -744 Level Albuquerque Center
Tue 09:55:12 PM 35.0892 -106.6325 95° East 268 308 8,500 -1,125 Descending Albuquerque Center
Tue 09:56:13 PM 35.0844 -106.5453 94° East 240 276 7,600 -887 Descending Albuquerque Center
Tue 09:57:07 PM 35.0583 -106.5053 129° Southeast 193 222 6,800 -939 Descending Albuquerque Center
Tue 09:58:08 PM 35.0428 -106.5508 247° West 126 145 5,800 -632 Descending Albuquerque Center
Tue 09:58:23 PM 35.0436 -106.5569 279° West 174 200 6,000 -316 Climbing Albuquerque Center
Tue 09:59:24 PM 35.0522 -106.5925 286° West 180 207 5,400 -590 Descending Albuquerque Center

Login

Don't have an account? Register now (free) for customized features, flight alerts, and more!